Time;durP1;ratioP1;P1;durP2;ratioP2;P2;SDS_P1;SDS_P2;PMS_P1;PMS_P2;Temp;Humidity;BMP_temperature;BMP_pressure;BME280_temperature;BME280_humidity;BME280_pressure;Samples;Min_cycle;Max_cycle;Signal;HPM_P1;HPM_P2
2023/11/08 00:02:48;;;;;;;7.43;3.95;;;;;;;8.28;100.00;100613.97;6276885;28;20055;-75
2023/11/08 00:05:50;;;;;;;6.90;4.43;;;;;;;8.21;100.00;100612.53;6277130;28;20049;-76
2023/11/08 00:08:51;;;;;;;7.78;4.05;;;;;;;8.19;100.00;100623.06;6276699;28;20433;-74
2023/11/08 00:11:53;;;;;;;8.75;4.35;;;;;;;8.16;100.00;100607.50;6276530;28;20053;-76
2023/11/08 00:14:57;;;;;;;7.40;4.10;;;;;;;8.20;100.00;100606.44;6276888;28;20056;-75
2023/11/08 00:17:59;;;;;;;9.40;3.90;;;;;;;8.13;100.00;100611.13;6276583;28;20049;-76
2023/11/08 00:21:01;;;;;;;7.53;4.13;;;;;;;8.16;100.00;100601.41;6276735;28;20052;-76
2023/11/08 00:24:03;;;;;;;11.63;4.32;;;;;;;8.19;100.00;100607.38;6276245;28;20076;-75
2023/11/08 00:27:04;;;;;;;6.72;4.22;;;;;;;8.20;100.00;100603.81;6276588;28;20053;-75
2023/11/08 00:30:08;;;;;;;6.97;4.22;;;;;;;8.20;100.00;100614.28;6276295;28;20445;-74
2023/11/08 00:33:11;;;;;;;8.02;4.40;;;;;;;8.23;100.00;100610.72;6276343;28;20049;-74
2023/11/08 00:36:12;;;;;;;12.02;5.05;;;;;;;8.15;100.00;100608.44;6276183;28;20330;-75
2023/11/08 00:39:15;;;;;;;8.23;4.22;;;;;;;8.23;100.00;100611.56;6276468;28;20195;-75
2023/11/08 00:42:17;;;;;;;7.85;3.80;;;;;;;8.21;100.00;100613.38;6276007;28;20056;-74
2023/11/08 00:45:19;;;;;;;7.68;3.83;;;;;;;8.25;100.00;100612.31;6275929;28;20045;-74
2023/11/08 00:48:23;;;;;;;9.27;4.60;;;;;;;8.24;100.00;100613.25;6275988;28;20357;-76
2023/11/08 00:51:27;;;;;;;10.55;4.43;;;;;;;8.27;100.00;100610.50;6275629;28;20084;-74
2023/11/08 00:54:28;;;;;;;12.95;5.00;;;;;;;8.24;100.00;100617.63;6276065;28;20131;-76
2023/11/08 00:57:31;;;;;;;8.32;4.15;;;;;;;8.28;100.00;100625.28;6275686;28;20044;-73
2023/11/08 01:00:33;;;;;;;10.98;4.63;;;;;;;8.29;100.00;100633.97;6275831;28;20049;-73
2023/11/08 01:03:35;;;;;;;14.38;5.00;;;;;;;8.38;100.00;100638.81;6275379;28;20357;-76
2023/11/08 01:06:36;;;;;;;10.77;4.72;;;;;;;8.41;100.00;100630.84;6275076;28;20041;-74
2023/11/08 01:09:41;;;;;;;17.00;4.63;;;;;;;8.39;100.00;100638.75;6275356;28;20103;-74
2023/11/08 01:12:42;;;;;;;8.32;4.30;;;;;;;8.41;100.00;100633.47;6275519;28;20060;-75
2023/11/08 01:15:45;;;;;;;8.45;4.90;;;;;;;8.37;100.00;100631.91;6275430;28;20041;-74
2023/11/08 01:18:48;;;;;;;6.80;4.10;;;;;;;8.35;100.00;100626.69;6275656;28;20055;-74
2023/11/08 01:21:50;;;;;;;10.10;4.72;;;;;;;8.41;100.00;100624.75;6275281;28;20049;-75
2023/11/08 01:24:51;;;;;;;11.30;4.15;;;;;;;8.34;100.00;100627.59;6275590;28;20053;-76
2023/11/08 01:27:53;;;;;;;8.00;4.88;;;;;;;8.33;100.00;100628.53;6275308;28;20433;-75
2023/11/08 01:30:55;;;;;;;10.30;3.88;;;;;;;8.29;100.00;100623.50;6275172;28;20056;-74
2023/11/08 01:33:58;;;;;;;7.75;3.95;;;;;;;8.37;100.00;100632.75;6275120;28;20052;-75
2023/11/08 01:36:59;;;;;;;8.20;4.38;;;;;;;8.37;100.00;100624.03;6274929;28;20049;-74
2023/11/08 01:40:02;;;;;;;6.95;3.85;;;;;;;8.29;100.00;100620.88;6275250;28;20358;-75
2023/11/08 01:43:04;;;;;;;11.75;3.95;;;;;;;8.29;100.00;100626.13;6274432;28;20055;-75
2023/11/08 01:46:11;;;;;;;8.55;4.80;;;;;;;8.25;100.00;100620.16;6274896;28;20136;-75
2023/11/08 01:49:13;;;;;;;8.23;4.43;;;;;;;8.27;100.00;100612.25;6275055;28;20131;-75
2023/11/08 01:52:15;;;;;;;7.88;4.10;;;;;;;8.27;100.00;100625.34;6274923;28;20052;-75
2023/11/08 01:55:16;;;;;;;7.97;4.72;;;;;;;8.25;100.00;100629.78;6274844;28;20102;-75
2023/11/08 01:58:18;;;;;;;9.38;4.70;;;;;;;8.24;100.00;100633.34;6275055;28;20464;-73
2023/11/08 02:01:21;;;;;;;6.97;4.38;;;;;;;8.20;100.00;100632.63;6274713;28;20049;-74
2023/11/08 02:04:23;;;;;;;10.38;4.55;;;;;;;8.18;100.00;100633.63;6274827;28;20059;-75
2023/11/08 02:07:24;;;;;;;11.27;5.00;;;;;;;8.16;100.00;100628.44;6274663;28;20068;-74
2023/11/08 02:10:26;;;;;;;8.02;4.88;;;;;;;8.08;100.00;100623.56;6274714;28;20053;-76
2023/11/08 02:13:27;;;;;;;6.78;4.70;;;;;;;8.07;100.00;100619.22;6274616;28;20075;-76
2023/11/08 02:16:32;;;;;;;7.88;4.85;;;;;;;8.01;100.00;100618.69;6274685;28;20076;-75
2023/11/08 02:19:33;;;;;;;14.98;5.88;;;;;;;7.99;100.00;100617.88;6277685;28;20049;-76
2023/11/08 02:22:35;;;;;;;8.43;5.05;;;;;;;7.92;100.00;100614.69;6279306;28;20045;-75
2023/11/08 02:25:38;;;;;;;11.20;5.95;;;;;;;7.94;100.00;100614.63;6279526;28;20055;-75
2023/11/08 02:28:39;;;;;;;7.20;5.18;;;;;;;7.89;100.00;100620.06;6279388;28;20049;-74
2023/11/08 02:31:41;;;;;;;12.35;5.45;;;;;;;7.88;100.00;100616.59;6279246;28;20049;-74
2023/11/08 02:34:42;;;;;;;10.00;5.38;;;;;;;7.86;100.00;100607.97;6279402;28;20053;-75
2023/11/08 02:37:44;;;;;;;13.75;5.70;;;;;;;7.82;100.00;100602.94;6278777;28;20041;-75
2023/11/08 02:40:47;;;;;;;8.15;4.85;;;;;;;7.81;100.00;100598.59;6279098;28;20249;-74
2023/11/08 02:43:49;;;;;;;11.95;6.03;;;;;;;7.81;100.00;100609.06;6278787;28;20049;-75
2023/11/08 02:46:51;;;;;;;14.82;5.68;;;;;;;7.82;100.00;100616.03;6278609;28;20072;-74
2023/11/08 02:49:53;;;;;;;12.73;6.88;;;;;;;7.83;100.00;100608.09;6278740;28;20437;-75
2023/11/08 02:52:54;;;;;;;15.73;5.78;;;;;;;7.88;100.00;100606.13;6278774;28;20104;-74
2023/11/08 02:55:57;;;;;;;13.18;5.45;;;;;;;7.93;100.00;100607.69;6278425;28;20384;-74
2023/11/08 02:58:58;;;;;;;11.75;6.15;;;;;;;7.87;100.00;100606.22;6278789;28;20049;-75
2023/11/08 03:02:00;;;;;;;14.23;6.75;;;;;;;7.87;100.00;100612.28;6278359;28;20053;-75
2023/11/08 03:05:02;;;;;;;19.73;6.47;;;;;;;7.95;100.00;100613.69;6278664;28;20056;-74
2023/11/08 03:08:05;;;;;;;12.48;6.43;;;;;;;7.98;100.00;100609.19;6278121;28;20045;-74
2023/11/08 03:11:08;;;;;;;9.95;6.05;;;;;;;7.94;100.00;100615.47;6278121;28;20053;-73
2023/11/08 03:14:09;;;;;;;10.07;6.18;;;;;;;7.93;100.00;100615.53;6278200;28;20060;-74
2023/11/08 03:17:11;;;;;;;9.63;6.72;;;;;;;7.88;100.00;100615.75;6278098;28;20045;-74
2023/11/08 03:20:13;;;;;;;12.07;5.78;;;;;;;7.85;100.00;100615.88;6278152;28;20055;-74
2023/11/08 03:23:14;;;;;;;10.10;6.40;;;;;;;7.87;100.00;100629.75;6277927;28;20452;-73
2023/11/08 03:26:17;;;;;;;10.93;6.32;;;;;;;7.87;100.00;100625.38;6278016;28;20045;-74
2023/11/08 03:29:20;;;;;;;16.73;6.82;;;;;;;7.85;100.00;100619.34;6277772;28;20045;-73
2023/11/08 03:32:23;;;;;;;10.68;6.25;;;;;;;7.83;100.00;100636.03;6277072;28;20051;-73
2023/11/08 03:35:24;;;;;;;11.80;6.10;;;;;;;7.79;100.00;100640.53;6277717;28;20488;-73
2023/11/08 03:38:26;;;;;;;10.77;5.82;;;;;;;7.82;100.00;100639.56;6277380;28;20447;-73
2023/11/08 03:41:29;;;;;;;11.25;6.13;;;;;;;7.84;100.00;100645.56;6277124;28;20057;-73
2023/11/08 03:44:30;;;;;;;14.02;6.82;;;;;;;7.83;100.00;100643.88;6276742;28;20441;-73
2023/11/08 03:47:31;;;;;;;13.55;6.05;;;;;;;7.79;100.00;100640.53;6277134;28;20049;-73
2023/11/08 03:50:33;;;;;;;11.45;6.63;;;;;;;7.82;100.00;100648.25;6277277;28;20055;-72
2023/11/08 03:53:35;;;;;;;9.20;5.95;;;;;;;7.85;100.00;100655.97;6277145;28;20049;-73
2023/11/08 03:56:38;;;;;;;9.43;5.10;;;;;;;7.82;100.00;100648.25;6277144;28;20060;-73
2023/11/08 03:59:39;;;;;;;16.38;6.32;;;;;;;7.82;100.00;100645.66;6277109;28;20049;-73
2023/11/08 04:02:41;;;;;;;8.95;5.65;;;;;;;7.82;100.00;100648.25;6277096;28;20044;-72
2023/11/08 04:05:43;;;;;;;9.25;5.57;;;;;;;7.85;100.00;100655.13;6276996;28;20044;-74
2023/11/08 04:08:44;;;;;;;10.52;5.47;;;;;;;7.82;100.00;100657.88;6276576;28;20041;-73
2023/11/08 04:11:47;;;;;;;11.93;6.13;;;;;;;7.84;100.00;100659.50;6276655;28;20063;-73
2023/11/08 04:14:48;;;;;;;10.13;5.65;;;;;;;7.87;100.00;100650.69;6276783;28;20059;-73
2023/11/08 04:17:50;;;;;;;12.85;5.03;;;;;;;7.86;100.00;100664.69;6276790;28;20041;-73
2023/11/08 04:20:51;;;;;;;7.53;4.95;;;;;;;7.92;100.00;100661.78;6276623;28;20448;-73
2023/11/08 04:23:52;;;;;;;8.20;4.63;;;;;;;7.96;100.00;100663.38;6276456;28;20068;-74
2023/11/08 04:26:55;;;;;;;10.07;4.80;;;;;;;7.93;100.00;100657.41;6276389;28;20053;-73
2023/11/08 04:29:57;;;;;;;10.48;5.25;;;;;;;7.97;100.00;100657.22;6276607;28;20053;-73
2023/11/08 04:32:58;;;;;;;9.20;5.18;;;;;;;7.98;100.00;100664.13;6276274;28;20143;-73
2023/11/08 04:36:00;;;;;;;9.13;4.82;;;;;;;8.03;100.00;100667.41;6276492;28;20049;-73
2023/11/08 04:39:01;;;;;;;5.30;3.50;;;;;;;7.93;100.00;100671.34;6275917;28;20136;-73
2023/11/08 04:42:04;;;;;;;8.60;3.95;;;;;;;7.98;100.00;100674.59;6276128;28;20049;-74
2023/11/08 04:45:07;;;;;;;6.88;3.83;;;;;;;7.95;100.00;100666.03;6276122;28;20055;-74
2023/11/08 04:48:09;;;;;;;9.05;4.05;;;;;;;7.98;100.00;100668.53;6276147;28;20052;-74
2023/11/08 04:51:10;;;;;;;16.08;4.20;;;;;;;7.96;100.00;100667.75;6276036;28;20140;-74
2023/11/08 04:54:13;;;;;;;9.57;4.40;;;;;;;7.98;100.00;100668.53;6275666;28;20357;-74
2023/11/08 04:57:18;;;;;;;9.73;4.45;;;;;;;8.00;100.00;100672.78;6275755;28;20471;-73
2023/11/08 05:00:19;;;;;;;10.52;3.67;;;;;;;8.00;100.00;100678.00;6275715;28;20049;-73
2023/11/08 05:03:21;;;;;;;6.53;4.55;;;;;;;8.05;100.00;100676.03;6275324;28;20049;-74
2023/11/08 05:06:22;;;;;;;13.50;4.55;;;;;;;8.05;100.00;100691.75;6272807;28;20075;-73
2023/11/08 05:09:24;;;;;;;8.10;4.70;;;;;;;8.04;100.00;100686.56;6275391;28;20353;-76
2023/11/08 05:12:28;;;;;;;11.57;5.22;;;;;;;8.07;100.00;100691.66;6271870;28;20227;-74
2023/11/08 05:15:30;;;;;;;10.25;4.97;;;;;;;8.13;100.00;100691.41;6250380;28;20053;-73
2023/11/08 05:18:31;;;;;;;7.75;4.13;;;;;;;8.16;100.00;100693.88;6273551;28;20083;-74
2023/11/08 05:21:33;;;;;;;6.40;3.92;;;;;;;8.21;100.00;100689.28;6266088;28;20055;-73
2023/11/08 05:24:34;;;;;;;7.40;4.00;;;;;;;8.13;100.00;100700.13;6254062;28;20064;-73
2023/11/08 05:27:37;;;;;;;9.05;4.18;;;;;;;8.05;100.00;100703.97;6251929;28;20057;-74
2023/11/08 05:30:40;;;;;;;7.57;4.60;;;;;;;8.10;100.00;100705.47;6262721;28;20060;-73
2023/11/08 05:33:41;;;;;;;8.70;4.38;;;;;;;8.12;100.00;100711.47;6259929;28;20049;-71
2023/11/08 05:36:43;;;;;;;8.23;4.28;;;;;;;8.16;100.00;100712.19;6250157;28;20060;-72
2023/11/08 05:39:45;;;;;;;9.98;4.93;;;;;;;8.18;100.00;100712.16;6250261;28;20056;-73
2023/11/08 05:42:48;;;;;;;9.23;4.28;;;;;;;8.16;100.00;100714.81;6250510;28;20054;-74
2023/11/08 05:45:49;;;;;;;14.00;5.00;;;;;;;8.19;100.00;100706.84;6274708;28;20048;-74
2023/11/08 05:48:51;;;;;;;8.93;4.05;;;;;;;8.17;100.00;100713.06;6274938;28;20056;-73
2023/11/08 05:51:52;;;;;;;8.63;4.50;;;;;;;8.14;100.00;100716.66;6274561;28;20056;-73
2023/11/08 05:54:54;;;;;;;8.90;3.85;;;;;;;8.18;100.00;100717.38;6278426;28;20057;-74
2023/11/08 05:57:57;;;;;;;6.93;4.50;;;;;;;8.23;100.00;100716.25;6279845;28;20041;-73
2023/11/08 06:00:58;;;;;;;7.35;3.80;;;;;;;8.22;100.00;100717.19;6280045;28;20060;-73
2023/11/08 06:04:00;;;;;;;7.45;3.90;;;;;;;8.17;100.00;100723.53;6279836;28;20063;-74
2023/11/08 06:07:02;;;;;;;8.02;3.92;;;;;;;8.11;100.00;100728.09;6278248;28;20443;-72
2023/11/08 06:10:04;;;;;;;7.97;4.10;;;;;;;8.14;100.00;100720.13;6279475;28;20048;-74
2023/11/08 06:13:09;;;;;;;8.38;4.15;;;;;;;8.17;100.00;100723.53;6279337;28;20055;-74
2023/11/08 06:16:10;;;;;;;7.30;3.47;;;;;;;8.19;100.00;100725.16;6279599;28;20134;-73
2023/11/08 06:19:12;;;;;;;8.18;3.60;;;;;;;8.26;100.00;100731.81;6279302;28;20045;-74
2023/11/08 06:22:13;;;;;;;5.93;3.67;;;;;;;8.27;100.00;100730.91;6279378;28;20049;-74
2023/11/08 06:25:15;;;;;;;5.97;3.72;;;;;;;8.26;100.00;100730.97;6279201;28;20107;-74
2023/11/08 06:28:18;;;;;;;13.13;3.17;;;;;;;8.25;100.00;100729.28;6276171;28;20499;-74
2023/11/08 06:31:20;;;;;;;8.18;4.07;;;;;;;8.21;100.00;100732.94;6266450;28;20049;-72
2023/11/08 06:34:24;;;;;;;6.75;3.70;;;;;;;8.22;100.00;100738.13;6266429;28;20053;-74
2023/11/08 06:37:26;;;;;;;7.53;4.10;;;;;;;8.24;100.00;100735.44;6273085;28;20047;-74
2023/11/08 06:40:27;;;;;;;8.80;4.30;;;;;;;8.21;100.00;100744.25;6278729;28;20087;-74
2023/11/08 06:43:30;;;;;;;7.40;3.55;;;;;;;8.25;100.00;100747.59;6278907;28;20459;-74
2023/11/08 06:46:31;;;;;;;12.80;4.65;;;;;;;8.21;100.00;100749.50;6278464;28;20048;-74
2023/11/08 06:49:33;;;;;;;6.53;3.97;;;;;;;8.19;100.00;100747.88;6278771;28;20049;-73
2023/11/08 06:52:34;;;;;;;7.53;3.50;;;;;;;8.17;100.00;100745.31;6277618;28;20044;-73
2023/11/08 06:55:36;;;;;;;6.40;3.53;;;;;;;8.13;100.00;100760.31;6277936;28;20049;-73
2023/11/08 06:58:38;;;;;;;14.70;4.22;;;;;;;8.09;100.00;100758.75;6278461;28;20045;-73
2023/11/08 07:01:41;;;;;;;12.32;4.07;;;;;;;8.12;100.00;100774.28;6276877;28;20052;-74
2023/11/08 07:04:42;;;;;;;7.68;3.85;;;;;;;8.05;100.00;100770.25;6272571;28;20049;-74
2023/11/08 07:07:44;;;;;;;7.85;3.67;;;;;;;8.10;100.00;100773.53;6275368;28;20068;-74
2023/11/08 07:10:45;;;;;;;13.57;4.18;;;;;;;8.05;100.00;100770.25;6278167;28;20056;-74
2023/11/08 07:13:48;;;;;;;9.75;3.78;;;;;;;8.02;100.00;100786.09;6278100;28;20392;-74
2023/11/08 07:16:50;;;;;;;6.97;3.60;;;;;;;7.98;100.00;100789.75;6278290;28;20049;-74
2023/11/08 07:19:51;;;;;;;11.10;4.35;;;;;;;8.05;100.00;100792.97;6277988;28;20045;-74
2023/11/08 07:22:53;;;;;;;9.27;4.40;;;;;;;8.06;100.00;100792.88;6278064;28;20052;-73
2023/11/08 07:25:55;;;;;;;9.57;3.85;;;;;;;8.16;100.00;100800.34;6277887;28;20049;-73
2023/11/08 07:28:58;;;;;;;7.35;3.65;;;;;;;8.21;100.00;100801.84;6278043;28;20103;-73
2023/11/08 07:32:00;;;;;;;9.82;3.47;;;;;;;8.25;100.00;100799.97;6277631;28;20059;-72
2023/11/08 07:35:01;;;;;;;8.50;3.83;;;;;;;8.26;100.00;100807.75;6277976;28;20049;-72
2023/11/08 07:38:03;;;;;;;6.65;3.42;;;;;;;8.33;100.00;100806.56;6277417;28;20045;-73
2023/11/08 07:41:04;;;;;;;10.98;3.85;;;;;;;8.35;100.00;100815.19;6277700;28;20053;-74
2023/11/08 07:44:07;;;;;;;5.35;3.17;;;;;;;8.32;100.00;100820.59;6276837;28;20128;-74
2023/11/08 07:47:09;;;;;;;6.85;4.30;;;;;;;8.36;100.00;100819.56;6277182;28;20358;-73
2023/11/08 07:50:14;;;;;;;7.05;3.30;;;;;;;8.43;100.00;100824.53;6276586;28;20052;-73
2023/11/08 07:53:15;;;;;;;6.82;4.15;;;;;;;8.49;100.00;100825.09;6274630;28;20464;-72
2023/11/08 07:56:17;;;;;;;7.18;4.18;;;;;;;8.49;100.00;100829.50;6277231;28;20059;-74
2023/11/08 07:59:19;;;;;;;9.52;4.00;;;;;;;8.44;100.00;100826.22;6270561;28;20042;-74
2023/11/08 08:02:21;;;;;;;9.38;3.97;;;;;;;8.61;100.00;100824.59;6270738;28;20053;-72
2023/11/08 08:05:22;;;;;;;10.85;4.40;;;;;;;8.67;100.00;100833.09;6269271;28;20471;-73
2023/11/08 08:08:25;;;;;;;5.15;3.63;;;;;;;8.70;100.00;100825.09;6265151;28;20046;-72
2023/11/08 08:11:26;;;;;;;10.00;4.88;;;;;;;8.70;100.00;100822.47;6272045;28;20053;-74
2023/11/08 08:14:29;;;;;;;12.82;4.15;;;;;;;8.78;100.00;100823.00;6282665;28;20049;-73
2023/11/08 08:17:30;;;;;;;7.78;4.15;;;;;;;8.78;100.00;100836.94;6292998;28;20059;-72
2023/11/08 08:20:32;;;;;;;6.68;3.88;;;;;;;8.84;100.00;100836.66;6289158;28;20049;-72
2023/11/08 08:23:34;;;;;;;5.97;3.70;;;;;;;8.91;100.00;100844.28;6285051;28;20056;-80
2023/11/08 08:26:35;;;;;;;13.13;4.45;;;;;;;8.90;100.00;100843.41;6275984;28;20056;-74
2023/11/08 08:29:38;;;;;;;8.95;3.70;;;;;;;8.91;100.00;100841.66;6279542;28;20047;-72
2023/11/08 08:32:41;;;;;;;7.18;3.35;;;;;;;8.89;100.00;100839.94;6275628;28;20138;-79
2023/11/08 08:35:43;;;;;;;9.00;3.53;;;;;;;8.94;100.00;100837.09;6281220;28;20361;-79
2023/11/08 08:38:44;;;;;;;12.30;4.18;;;;;;;9.00;100.00;100851.72;6284885;28;20571;-78
2023/11/08 08:41:46;;;;;;;13.70;4.80;;;;;;;9.10;100.00;100851.22;6281791;28;20056;-73
2023/11/08 08:44:49;;;;;;;9.23;4.18;;;;;;;9.17;100.00;100851.78;6257257;28;20049;-71
2023/11/08 08:47:52;;;;;;;7.65;3.72;;;;;;;9.19;100.00;100855.19;6222551;28;20046;-73
2023/11/08 08:50:53;;;;;;;6.95;3.92;;;;;;;9.16;100.00;100852.72;6226426;28;20057;-73
2023/11/08 08:53:55;;;;;;;11.35;3.30;;;;;;;9.22;100.00;100855.06;6226657;28;20049;-72
2023/11/08 08:56:58;;;;;;;12.93;3.42;;;;;;;9.29;100.00;100866.09;6225210;28;20085;-72
2023/11/08 09:00:01;;;;;;;11.13;3.70;;;;;;;9.28;100.00;100854.78;6226425;28;20177;-71
2023/11/08 09:03:06;;;;;;;6.90;3.85;;;;;;;9.36;100.00;100857.06;6226513;28;20081;-72
2023/11/08 09:06:09;;;;;;;8.27;3.40;;;;;;;9.33;100.00;100857.19;6226552;28;20108;-73
2023/11/08 09:09:12;;;;;;;5.93;3.53;;;;;;;9.38;100.00;100863.91;6226426;28;20073;-73
2023/11/08 09:12:14;;;;;;;5.95;3.28;;;;;;;9.40;100.00;100853.34;6226061;28;20076;-74
2023/11/08 09:15:17;;;;;;;11.32;3.25;;;;;;;9.40;100.00;100855.97;6226168;28;20065;-75
2023/11/08 09:18:18;;;;;;;5.55;2.97;;;;;;;9.49;100.00;100860.78;6226289;28;20050;-72
2023/11/08 09:21:22;;;;;;;8.05;3.13;;;;;;;9.51;100.00;100860.72;6226197;28;20088;-75
2023/11/08 09:24:25;;;;;;;6.05;3.25;;;;;;;9.51;100.00;100861.56;6226207;28;20430;-74
2023/11/08 09:27:26;;;;;;;5.45;2.80;;;;;;;9.55;100.00;100854.41;6226058;28;20056;-74
2023/11/08 09:30:30;;;;;;;7.38;2.83;;;;;;;9.52;100.00;100859.78;6225652;28;20049;-73
2023/11/08 09:33:31;;;;;;;6.25;2.83;;;;;;;9.49;100.00;100866.03;6226115;28;20081;-76
2023/11/08 09:36:34;;;;;;;12.13;3.75;;;;;;;9.53;100.00;100875.44;6225802;28;20053;-73
2023/11/08 09:39:36;;;;;;;5.80;2.97;;;;;;;9.47;100.00;100873.13;6225861;28;20050;-74
2023/11/08 09:42:38;;;;;;;3.55;2.47;;;;;;;9.42;100.00;100876.88;6225819;28;20058;-74
2023/11/08 09:45:41;;;;;;;8.68;3.00;;;;;;;9.41;100.00;100876.03;6225676;28;20332;-73
2023/11/08 09:48:44;;;;;;;9.07;2.90;;;;;;;9.47;100.00;100878.38;6225942;28;20057;-73
2023/11/08 09:51:45;;;;;;;10.02;2.95;;;;;;;9.53;100.00;100885.94;6225515;28;20509;-74
2023/11/08 09:54:47;;;;;;;4.85;2.42;;;;;;;9.59;100.00;100887.47;6227378;28;20053;-74
2023/11/08 09:57:51;;;;;;;10.55;2.45;;;;;;;9.59;100.00;100880.44;6235597;28;20050;-74
2023/11/08 10:00:54;;;;;;;4.78;3.08;;;;;;;9.52;100.00;100880.78;6227991;28;20049;-74
2023/11/08 10:03:56;;;;;;;7.78;3.65;;;;;;;9.56;100.00;100879.72;6226928;28;20093;-73
2023/11/08 10:06:58;;;;;;;10.95;3.05;;;;;;;9.55;100.00;100884.13;6239805;28;20049;-73
2023/11/08 10:10:01;;;;;;;8.13;2.33;;;;;;;9.53;100.00;100888.56;6229566;28;20046;-74
2023/11/08 10:13:03;;;;;;;10.90;2.92;;;;;;;9.64;100.00;100880.22;6224732;28;20054;-73
2023/11/08 10:16:07;;;;;;;11.98;3.80;;;;;;;9.53;100.00;100888.56;6226051;28;20080;-74
2023/11/08 10:19:09;;;;;;;3.65;2.40;;;;;;;9.49;100.00;100887.00;6222555;28;20046;-74
2023/11/08 10:22:18;;;;;;;2.45;2.00;;;;;;;9.55;100.00;100876.25;6224748;28;20409;-72
2023/11/08 10:25:19;;;;;;;9.82;2.58;;;;;;;9.52;100.00;100873.75;6224747;28;20046;-75
2023/11/08 10:28:21;;;;;;;8.43;2.97;;;;;;;9.47;100.00;100878.38;6225455;28;20057;-71
2023/11/08 10:31:34;;;;;;;5.97;2.72;;;;;;;9.43;100.00;100874.19;6224382;28;20053;-72
2023/11/08 10:34:36;;;;;;;6.32;2.10;;;;;;;9.43;100.00;100865.47;6224682;28;20131;-74
2023/11/08 10:37:38;;;;;;;7.82;3.20;;;;;;;9.45;100.00;100859.25;6226899;28;20065;-73
2023/11/08 10:40:44;;;;;;;8.57;2.67;;;;;;;9.51;100.00;100869.44;6227354;28;20053;-72
2023/11/08 10:43:45;;;;;;;4.00;2.55;;;;;;;9.50;100.00;100856.41;6229015;28;20612;-73
2023/11/08 10:46:57;;;;;;;5.20;2.50;;;;;;;9.55;100.00;100855.25;6229221;28;20046;-72
2023/11/08 10:50:00;;;;;;;5.07;2.97;;;;;;;9.68;100.00;100852.06;6228778;28;20141;-73
2023/11/08 10:53:01;;;;;;;5.25;2.65;;;;;;;9.65;100.00;100848.66;6228624;28;20073;-72
2023/11/08 10:56:06;;;;;;;10.02;3.50;;;;;;;9.62;100.00;100838.28;6228608;28;20045;-75
2023/11/08 10:59:11;;;;;;;6.80;3.90;;;;;;;9.66;100.00;100852.13;6226454;28;20042;-74
2023/11/08 11:02:24;;;;;;;11.05;5.50;;;;;;;9.74;100.00;100852.59;6228486;28;20049;-75
2023/11/08 11:05:27;;;;;;;7.05;4.10;;;;;;;9.68;100.00;100844.19;6229093;28;20077;-75
2023/11/08 11:08:32;;;;;;;13.00;3.88;;;;;;;9.61;100.00;100844.47;6228741;28;20454;-75
2023/11/08 11:11:36;;;;;;;7.43;3.80;;;;;;;9.60;100.00;100844.53;6230979;28;20564;-75
2023/11/08 11:14:44;;;;;;;5.53;3.80;;;;;;;9.74;100.00;100842.09;6236986;28;20050;-77
2023/11/08 11:17:55;;;;;;;13.95;6.10;;;;;;;9.83;100.00;100843.44;6232313;28;20050;-77
2023/11/08 11:21:02;;;;;;;16.23;6.13;;;;;;;9.89;100.00;100845.75;6228674;28;20049;-78
2023/11/08 11:24:35;;;;;;;7.13;3.90;;;;;;;10.06;100.00;100858.06;6228777;28;20046;-77
2023/11/08 11:27:45;;;;;;;6.25;3.55;;;;;;;10.16;100.00;100861.91;6222413;28;20061;-78
2023/11/08 11:30:47;;;;;;;6.68;3.00;;;;;;;10.19;100.00;100846.03;6219892;28;20453;-77
2023/11/08 11:33:51;;;;;;;5.70;2.72;;;;;;;10.15;100.00;100854.97;6226526;28;20057;-76
2023/11/08 11:37:06;;;;;;;9.20;3.88;;;;;;;10.17;100.00;100837.34;6226975;28;20458;-77
2023/11/08 11:40:18;;;;;;;7.72;3.17;;;;;;;10.55;100.00;100839.88;6226661;28;20351;-77
2023/11/08 11:43:42;;;;;;;4.30;3.03;;;;;;;10.81;100.00;100843.72;6223693;28;20052;-77
2023/11/08 11:46:50;;;;;;;5.35;2.92;;;;;;;11.08;100.00;100844.03;6220384;28;20054;-78
2023/11/08 11:49:53;;;;;;;3.30;2.43;;;;;;;11.14;100.00;100833.22;6228139;28;20061;-76
2023/11/08 11:52:54;;;;;;;4.25;2.17;;;;;;;10.85;100.00;100846.13;6226904;28;20056;-76
2023/11/08 11:55:57;;;;;;;8.15;2.72;;;;;;;10.62;100.00;100843.84;6225715;28;20053;-77
2023/11/08 11:58:58;;;;;;;6.40;2.22;;;;;;;10.37;100.00;100834.63;6227495;28;20053;-77
2023/11/08 12:02:00;;;;;;;9.63;2.40;;;;;;;10.24;100.00;100819.53;6227609;28;20046;-77
2023/11/08 12:05:03;;;;;;;5.18;2.38;;;;;;;10.09;100.00;100823.78;6227626;28;20060;-77
2023/11/08 12:08:07;;;;;;;8.98;2.50;;;;;;;10.10;100.00;100817.59;6227253;28;20049;-77
2023/11/08 12:11:11;;;;;;;8.68;2.60;;;;;;;10.18;100.00;100830.34;6227452;28;20054;-77
2023/11/08 12:14:12;;;;;;;7.15;2.55;;;;;;;10.37;100.00;100825.88;6226386;28;20052;-77
2023/11/08 12:17:14;;;;;;;1.60;1.30;;;;;;;10.55;100.00;100826.72;6226667;28;20041;-76
2023/11/08 12:20:20;;;;;;;4.60;1.60;;;;;;;10.75;100.00;100826.50;6226846;28;20042;-78
2023/11/08 12:23:22;;;;;;;2.97;1.30;;;;;;;10.78;100.00;100826.34;6224806;28;20215;-78
2023/11/08 12:26:23;;;;;;;8.57;1.60;;;;;;;10.76;100.00;100822.09;6226397;28;20080;-78
2023/11/08 12:29:25;;;;;;;5.90;1.10;;;;;;;10.60;100.00;100837.84;6225301;28;20053;-78
2023/11/08 12:32:27;;;;;;;2.80;1.40;;;;;;;10.57;100.00;100812.56;6226607;28;20061;-75
2023/11/08 12:35:30;;;;;;;4.13;1.25;;;;;;;10.60;100.00;100824.69;6226981;28;20454;-78
2023/11/08 12:38:35;;;;;;;6.97;1.30;;;;;;;10.53;100.00;100818.06;6226117;28;20099;-77
2023/11/08 12:41:45;;;;;;;4.85;1.23;;;;;;;10.74;100.00;100824.81;6226232;28;20065;-76
2023/11/08 12:44:47;;;;;;;2.28;1.20;;;;;;;10.95;100.00;100817.59;6226059;28;20045;-78
2023/11/08 12:47:49;;;;;;;2.30;1.20;;;;;;;11.11;100.00;100818.44;6226309;28;20057;-77
2023/11/08 12:50:51;;;;;;;4.47;1.10;;;;;;;11.15;100.00;100813.88;6226084;28;20434;-80
2023/11/08 12:53:53;;;;;;;3.00;1.00;;;;;;;11.09;100.00;100812.41;6226213;28;20054;-79
2023/11/08 12:56:54;;;;;;;4.18;2.00;;;;;;;10.96;100.00;100816.66;6225961;28;20042;-78
2023/11/08 12:59:56;;;;;;;2.25;1.00;;;;;;;10.96;100.00;100806.13;6225902;28;20350;-79
2023/11/08 13:02:58;;;;;;;4.13;1.02;;;;;;;10.96;100.00;100807.91;6224917;28;20050;-78
2023/11/08 13:06:00;;;;;;;1.02;0.80;;;;;;;10.91;100.00;100805.53;6223163;28;20049;-77
2023/11/08 13:09:03;;;;;;;2.67;1.00;;;;;;;10.91;100.00;100801.13;6224121;28;20053;-78
2023/11/08 13:12:05;;;;;;;3.28;0.95;;;;;;;10.87;100.00;100796.94;6225169;28;20045;-77
2023/11/08 13:15:07;;;;;;;1.35;0.90;;;;;;;10.94;100.00;100794.81;6225442;28;20046;-79
2023/11/08 13:18:10;;;;;;;5.47;1.20;;;;;;;10.90;100.00;100794.16;6254461;22;20561;-77
2023/11/08 13:21:13;;;;;;;3.97;1.13;;;;;;;10.89;100.00;100783.72;6239467;28;20046;-73
2023/11/08 13:24:15;;;;;;;2.58;1.15;;;;;;;10.90;100.00;100783.66;6239332;28;20056;-78
2023/11/08 13:27:16;;;;;;;5.13;0.90;;;;;;;10.89;100.00;100787.19;6240007;28;20062;-77
2023/11/08 13:30:18;;;;;;;8.43;1.10;;;;;;;10.87;100.00;100783.81;6238024;28;20045;-76
2023/11/08 13:33:19;;;;;;;1.85;1.00;;;;;;;10.86;100.00;100786.53;6240464;28;20465;-76
2023/11/08 13:36:26;;;;;;;4.82;1.10;;;;;;;10.88;100.00;100784.66;6248450;28;20049;-76
2023/11/08 13:39:27;;;;;;;5.57;1.17;;;;;;;10.83;100.00;100791.94;6238366;28;20430;-76
2023/11/08 13:42:29;;;;;;;4.47;1.10;;;;;;;10.76;100.00;100785.31;6233943;28;20049;-76
2023/11/08 13:45:30;;;;;;;1.65;0.73;;;;;;;10.75;100.00;100788.88;6249880;28;20264;-75
2023/11/08 13:48:33;;;;;;;5.60;1.45;;;;;;;10.78;100.00;100779.03;6250020;28;20046;-75
2023/11/08 13:51:36;;;;;;;3.50;0.90;;;;;;;10.77;100.00;100779.97;6250188;28;20045;-77
2023/11/08 13:54:38;;;;;;;2.08;1.25;;;;;;;10.80;100.00;100776.31;6248655;28;20053;-76
2023/11/08 13:57:40;;;;;;;3.15;1.20;;;;;;;10.79;100.00;100767.59;6245396;28;20057;-76
2023/11/08 14:00:41;;;;;;;5.00;1.30;;;;;;;10.77;100.00;100773.88;6241941;28;20057;-76
2023/11/08 14:03:43;;;;;;;3.35;1.15;;;;;;;10.91;100.00;100760.84;6250040;28;20046;-77
2023/11/08 14:06:46;;;;;;;2.40;1.02;;;;;;;10.83;100.00;100765.66;6249610;28;20045;-77